Valeene, Indiana
Current Conditions -  °F | °C
As of 10:55 PM on Saturday 24 Jan 2015 (Local Time) from KHNB Reporting Station
Clear Clear  
Wind Chill: 31°   Ceiling: Unl
Heat Index: 37°   Visibility: 10mi
Dew Point: 28°   Wind: 9mph
Humidity: 70%   Direction: 180°S
Pressure: 29.8"   Gusts: NA
Location:  38.4642°N, 86.3228°W
Report Text: KHNB 250355Z AUTO 18008KT 10SM CLR 03/M02 A2980 RMK AO1
Loading
Personal Weather Stations






























Interactive Weather Map New forecast layout! Learn more

10-Day Weather Forecast

Advertisements
Track Severe Weather on mobile